Time;durP1;ratioP1;P1;durP2;ratioP2;P2;SDS_P1;SDS_P2;PMS_P1;PMS_P2;Temp;Humidity;BMP_temperature;BMP_pressure;BME280_temperature;BME280_humidity;BME280_pressure;Samples;Min_cycle;Max_cycle;Signal;HPM_P1;HPM_P2
2023/01/18 00:01:10;;;;;;;32.50;20.60;;;;;;;6.00;100.00;98561.42;106798;1253;60769;-75
2023/01/18 00:03:37;;;;;;;34.60;21.30;;;;;;;6.00;100.00;98560.86;106367;1253;60463;-78
2023/01/18 00:06:05;;;;;;;37.50;21.60;;;;;;;5.92;100.00;98561.48;108087;1251;73960;-77
2023/01/18 00:08:33;;;;;;;29.40;19.40;;;;;;;5.89;100.00;98565.48;107366;1253;70449;-76
2023/01/18 00:11:11;;;;;;;26.10;17.80;;;;;;;5.95;100.00;98572.82;108634;1252;73835;-78
2023/01/18 00:13:38;;;;;;;29.50;20.70;;;;;;;5.96;100.00;98576.73;109374;1251;60499;-82
2023/01/18 00:16:13;;;;;;;30.70;21.20;;;;;;;5.92;100.00;98576.14;107595;1251;60882;-75
2023/01/18 00:18:40;;;;;;;32.70;20.20;;;;;;;5.89;100.00;98575.02;106562;1251;73864;-73
2023/01/18 00:21:09;;;;;;;25.60;19.70;;;;;;;5.95;100.00;98576.33;106037;1257;69805;-73
2023/01/18 00:23:36;;;;;;;33.00;21.20;;;;;;;5.98;100.00;98576.27;106051;1251;73184;-77
2023/01/18 00:26:04;;;;;;;30.30;21.80;;;;;;;5.92;100.00;98573.61;105912;1253;60504;-73
2023/01/18 00:28:32;;;;;;;28.60;19.70;;;;;;;5.88;100.00;98570.38;105971;1257;61204;-74
2023/01/18 00:30:59;;;;;;;32.30;21.10;;;;;;;5.92;99.96;98570.66;106547;1254;74014;-74
2023/01/18 00:33:25;;;;;;;31.40;21.50;;;;;;;5.92;100.00;98568.52;106564;1255;69905;-73
2023/01/18 00:35:55;;;;;;;36.00;22.70;;;;;;;5.87;100.00;98569.22;106262;1253;71548;-71
2023/01/18 00:38:22;;;;;;;30.40;19.60;;;;;;;5.83;100.00;98559.86;106015;1251;61436;-72
2023/01/18 00:40:49;;;;;;;30.10;19.00;;;;;;;5.89;100.00;98560.81;105890;1251;61029;-73
2023/01/18 00:46:01;;;;;;;29.90;21.40;;;;;;;5.84;100.00;98548.47;106026;1254;71564;-74
2023/01/18 00:48:28;;;;;;;30.20;19.50;;;;;;;5.79;100.00;98545.84;105967;1256;71622;-74
2023/01/18 00:50:54;;;;;;;27.50;18.80;;;;;;;5.84;100.00;98550.25;106086;1254;62092;-73
2023/01/18 00:53:21;;;;;;;30.30;20.50;;;;;;;5.85;100.00;98546.95;105940;1254;60424;-74
2023/01/18 00:55:48;;;;;;;31.40;20.50;;;;;;;5.80;100.00;98544.52;106626;1251;74570;-74
2023/01/18 00:58:15;;;;;;;33.80;20.80;;;;;;;5.76;100.00;98546.18;106688;1251;69087;-72
2023/01/18 01:00:41;;;;;;;26.90;19.20;;;;;;;5.81;100.00;98550.02;106554;1255;72363;-75
2023/01/18 01:03:08;;;;;;;34.40;21.80;;;;;;;5.83;100.00;98548.53;105780;1254;191241;-71
2023/01/18 01:07:29;;;;;;;27.10;20.80;;;;;;;5.78;100.00;98545.62;102616;1292;600797;-73
2023/01/18 01:09:56;;;;;;;32.20;20.00;;;;;;;5.76;100.00;98539.71;106016;1273;59352;-76
2023/01/18 01:26:13;;;;;;;32.20;20.80;;;;;;;5.84;100.00;98525.08;105415;1254;60104;-72
2023/01/18 01:28:44;;;;;;;29.20;19.00;;;;;;;5.79;100.00;98528.81;105347;1256;74113;-73
2023/01/18 01:31:13;;;;;;;31.10;18.90;;;;;;;5.83;100.00;98529.75;105465;1259;71414;-72
2023/01/18 01:33:40;;;;;;;30.40;20.10;;;;;;;5.87;100.00;98529.55;105521;1259;71940;-70
2023/01/18 01:36:09;;;;;;;29.20;20.40;;;;;;;5.82;100.00;98532.23;105428;1254;62022;-70
2023/01/18 01:38:37;;;;;;;30.40;19.70;;;;;;;5.78;100.00;98531.78;105758;1258;59631;-70
2023/01/18 01:41:28;;;;;;;26.70;18.30;;;;;;;5.84;100.00;98528.67;105418;1254;73051;-71
2023/01/18 01:43:57;;;;;;;34.80;20.60;;;;;;;5.86;100.00;98519.98;105645;1256;69528;-70
2023/01/18 01:46:39;;;;;;;33.90;20.10;;;;;;;5.81;100.00;98505.55;105506;1259;73378;-70
2023/01/18 01:49:09;;;;;;;28.90;19.10;;;;;;;5.81;100.00;98501.27;105392;1254;60856;-69
2023/01/18 01:51:38;;;;;;;29.20;19.60;;;;;;;5.86;100.00;98499.25;105494;1254;59618;-71
2023/01/18 01:54:10;;;;;;;30.50;19.70;;;;;;;5.87;100.00;98497.23;105591;1254;75109;-70
2023/01/18 01:56:37;;;;;;;31.90;20.00;;;;;;;5.85;100.00;98495.33;105517;1257;71701;-71
2023/01/18 01:59:04;;;;;;;28.30;18.80;;;;;;;5.84;100.00;98498.79;105491;1254;75090;-73
2023/01/18 02:01:30;;;;;;;25.50;18.40;;;;;;;5.90;100.00;98499.83;105696;1254;63206;-73
2023/01/18 02:03:57;;;;;;;28.70;18.90;;;;;;;5.94;100.00;98501.60;105743;1255;63011;-71
2023/01/18 02:06:30;;;;;;;27.10;19.80;;;;;;;5.90;100.00;98510.08;105682;1254;75165;-73
2023/01/18 02:09:01;;;;;;;30.60;19.60;;;;;;;5.84;100.00;98500.49;105561;1260;72526;-72
2023/01/18 02:11:28;;;;;;;23.50;16.40;;;;;;;5.89;100.00;98497.82;105564;1256;74840;-70
2023/01/18 02:13:57;;;;;;;26.80;19.10;;;;;;;5.91;100.00;98497.25;105695;1258;59715;-74
2023/01/18 02:16:31;;;;;;;27.20;18.30;;;;;;;5.86;100.00;98487.80;105809;1257;60786;-72
2023/01/18 02:19:12;;;;;;;26.70;16.90;;;;;;;5.81;100.00;98483.08;105573;1254;72958;-72
2023/01/18 02:21:46;;;;;;;26.90;18.50;;;;;;;5.84;100.00;98488.73;105633;1258;71613;-72
2023/01/18 02:24:18;;;;;;;;;;;;;;;5.82;100.00;98488.93;105780;1260;73161;-71
2023/01/18 02:26:52;;;;;;;28.10;19.50;;;;;;;5.75;100.00;98482.92;105732;1256;62439;-73
2023/01/18 02:29:41;;;;;;;31.00;19.40;;;;;;;5.73;100.00;98480.45;105425;1258;62287;-72
2023/01/18 02:32:36;;;;;;;29.10;18.40;;;;;;;5.81;100.00;98481.30;105895;1257;75285;-72
2023/01/18 02:35:09;;;;;;;26.50;18.60;;;;;;;5.80;100.00;98484.02;105389;1254;72069;-72
2023/01/18 02:38:01;;;;;;;30.10;18.20;;;;;;;5.77;100.00;98472.64;105758;1254;74689;-77
2023/01/18 02:40:38;;;;;;;31.10;17.90;;;;;;;5.82;100.00;98466.06;105773;1258;62881;-76
2023/01/18 02:48:40;;;;;;;32.10;18.80;;;;;;;5.79;100.00;98461.90;106342;1258;71442;-75
2023/01/18 02:51:06;;;;;;;27.70;18.00;;;;;;;5.85;100.00;98451.33;105849;1255;72947;-76
2023/01/18 02:53:37;;;;;;;29.70;18.70;;;;;;;5.90;100.00;98446.45;106065;1256;61623;-73
2023/01/18 02:56:25;;;;;;;32.10;19.80;;;;;;;5.87;100.00;98444.84;105771;1254;60059;-75
2023/01/18 02:59:03;;;;;;;29.40;18.30;;;;;;;5.84;100.00;98447.30;106302;1254;71639;-72
2023/01/18 03:01:44;;;;;;;30.90;18.20;;;;;;;5.92;100.00;98439.54;106283;1253;69514;-75
2023/01/18 03:04:27;;;;;;;30.60;19.30;;;;;;;5.92;100.00;98440.05;105861;1256;75211;-72
2023/01/18 03:06:57;;;;;;;32.00;20.20;;;;;;;5.87;100.00;98437.66;105947;1257;62447;-72
2023/01/18 03:09:26;;;;;;;30.60;18.00;;;;;;;5.89;100.00;98445.30;105860;1258;59695;-72
2023/01/18 03:11:53;;;;;;;34.50;20.60;;;;;;;5.98;100.00;98444.40;105648;1256;75002;-73
2023/01/18 03:14:38;;;;;;;30.90;18.80;;;;;;;5.96;100.00;98441.02;105382;1256;72230;-70
2023/01/18 03:17:24;;;;;;;36.20;20.20;;;;;;;5.92;100.00;98433.23;105803;1254;73154;-72
2023/01/18 03:20:06;;;;;;;28.20;18.40;;;;;;;5.97;100.00;98454.27;105480;1256;64050;-72
2023/01/18 03:25:35;;;;;;;29.50;18.90;;;;;;;5.89;100.00;98449.31;105489;1254;75010;-70
2023/01/18 03:33:44;;;;;;;32.20;20.50;;;;;;;5.93;100.00;98454.73;105382;1256;60130;-68
2023/01/18 03:36:23;;;;;;;26.10;17.80;;;;;;;5.92;100.00;98457.09;105363;1260;60154;-70
2023/01/18 03:39:09;;;;;;;23.90;16.70;;;;;;;6.00;100.00;98449.05;105266;1257;73978;-70
2023/01/18 03:41:39;;;;;;;26.60;18.00;;;;;;;6.02;100.00;98453.98;105314;1253;70092;-71
2023/01/18 03:44:11;;;;;;;30.20;18.70;;;;;;;5.96;100.00;98458.45;105644;1256;74529;-70
2023/01/18 03:46:38;;;;;;;29.60;19.20;;;;;;;5.97;100.00;98453.73;106045;1253;62636;-68
2023/01/18 03:49:06;;;;;;;29.80;19.40;;;;;;;6.00;100.00;98448.65;105853;1256;62437;-70
2023/01/18 03:51:40;;;;;;;35.70;21.10;;;;;;;5.96;100.00;98443.29;106038;1255;73950;-72
2023/01/18 03:54:21;;;;;;;30.90;20.20;;;;;;;5.95;100.00;98438.20;105960;1258;71046;-74
2023/01/18 03:56:55;;;;;;;28.10;18.00;;;;;;;6.04;100.00;98429.79;105657;1256;75005;-72
2023/01/18 03:59:22;;;;;;;26.60;18.90;;;;;;;6.10;100.00;98431.38;105903;1254;62331;-72
2023/01/18 04:01:49;;;;;;;31.60;20.50;;;;;;;6.08;100.00;98445.89;105604;1256;62421;-71
2023/01/18 04:04:16;;;;;;;27.90;18.70;;;;;;;6.04;100.00;98447.58;105440;1259;74115;-71
2023/01/18 04:06:43;;;;;;;33.10;19.10;;;;;;;6.08;100.00;98442.88;105002;1257;71304;-71
2023/01/18 04:09:10;;;;;;;28.00;19.10;;;;;;;6.11;100.00;98436.27;105257;1260;74580;-70
2023/01/18 04:11:37;;;;;;;35.10;19.60;;;;;;;6.06;100.00;98442.89;105422;1254;61742;-72
2023/01/18 04:14:05;;;;;;;33.00;19.30;;;;;;;6.03;100.00;98435.16;105365;1255;60096;-73
2023/01/18 04:16:32;;;;;;;25.70;16.30;;;;;;;6.10;100.00;98437.86;105638;1255;73806;-71
2023/01/18 04:18:59;;;;;;;28.80;19.30;;;;;;;6.15;100.00;98432.52;105465;1257;72322;-73
2023/01/18 04:21:26;;;;;;;30.00;17.60;;;;;;;6.09;100.00;98447.34;105273;1257;70916;-72
2023/01/18 04:23:53;;;;;;;26.20;17.90;;;;;;;6.05;100.00;98438.41;105509;1256;64218;-70
2023/01/18 04:26:20;;;;;;;23.00;16.40;;;;;;;6.13;100.00;98437.39;105910;1258;59820;-71
2023/01/18 04:28:46;;;;;;;31.50;19.10;;;;;;;6.19;100.00;98440.23;105779;1254;75304;-72
2023/01/18 04:31:13;;;;;;;31.30;18.90;;;;;;;6.17;100.00;98445.79;106704;1261;71298;-72
2023/01/18 04:33:40;;;;;;;27.70;16.30;;;;;;;6.14;100.00;98439.02;105458;1258;72763;-73
2023/01/18 04:36:08;;;;;;;27.70;17.10;;;;;;;6.20;100.00;98432.19;105851;1256;62585;-71
2023/01/18 04:38:35;;;;;;;27.80;19.80;;;;;;;6.22;100.00;98435.51;106677;1254;61425;-73
2023/01/18 04:41:03;;;;;;;29.30;19.20;;;;;;;6.17;100.00;98433.13;106140;1259;73542;-72
2023/01/18 04:43:30;;;;;;;28.10;18.30;;;;;;;6.13;100.00;98426.74;105940;1256;72171;-74
2023/01/18 04:45:57;;;;;;;27.90;18.90;;;;;;;6.20;100.00;98431.86;105675;1256;73736;-73
2023/01/18 04:48:24;;;;;;;29.50;18.60;;;;;;;6.25;100.00;98440.93;105586;1255;61448;-72
2023/01/18 04:50:51;;;;;;;29.50;19.80;;;;;;;6.23;100.00;98435.97;107283;1255;59537;-71
2023/01/18 04:53:18;;;;;;;25.80;17.30;;;;;;;6.20;100.00;98430.70;107081;1254;73948;-73
2023/01/18 04:55:45;;;;;;;26.50;16.90;;;;;;;6.25;100.00;98433.81;106716;1259;70915;-70
2023/01/18 04:58:12;;;;;;;23.40;15.90;;;;;;;6.31;100.00;98441.75;106053;1256;73930;-73
2023/01/18 05:00:38;;;;;;;24.60;17.00;;;;;;;6.28;100.00;98439.11;105483;1256;61514;-71
2023/01/18 05:03:07;;;;;;;26.50;16.80;;;;;;;6.21;100.00;98421.42;105500;1255;59960;-72
2023/01/18 05:05:34;;;;;;;23.40;16.50;;;;;;;6.24;100.00;98422.40;105924;1259;73414;-72
2023/01/18 05:08:01;;;;;;;27.10;18.20;;;;;;;6.27;100.00;98425.83;106429;1254;71316;-71
2023/01/18 05:10:27;;;;;;;25.90;17.00;;;;;;;6.22;100.00;98419.88;105699;1256;73733;-71
2023/01/18 05:12:54;;;;;;;25.50;17.20;;;;;;;6.25;100.00;98423.93;105833;1256;63763;-72
2023/01/18 05:15:22;;;;;;;29.80;19.60;;;;;;;6.26;100.00;98421.35;106313;1255;60036;-71
2023/01/18 05:17:48;;;;;;;25.70;17.10;;;;;;;6.22;100.00;98427.46;105945;1259;73677;-72
2023/01/18 05:20:15;;;;;;;26.00;16.50;;;;;;;6.22;100.00;98419.02;106004;1258;71878;-72
2023/01/18 05:22:42;;;;;;;27.80;18.30;;;;;;;6.30;100.00;98408.27;105656;1255;72957;-71
2023/01/18 05:25:09;;;;;;;32.30;18.30;;;;;;;6.32;100.00;98406.27;105968;1255;61766;-72
2023/01/18 05:27:36;;;;;;;28.80;18.80;;;;;;;6.28;100.00;98406.70;106015;1256;60436;-71
2023/01/18 05:30:04;;;;;;;26.10;16.20;;;;;;;6.28;100.00;98411.09;105461;1256;73827;-72
2023/01/18 05:32:32;;;;;;;33.50;17.90;;;;;;;6.37;100.00;98414.17;105552;1256;70492;-72
2023/01/18 05:34:59;;;;;;;28.60;17.40;;;;;;;6.39;100.00;98406.77;106591;1256;72894;-71
2023/01/18 05:37:26;;;;;;;27.80;15.80;;;;;;;6.36;100.00;98397.63;105849;1254;62161;-72
2023/01/18 05:39:53;;;;;;;27.80;16.60;;;;;;;6.40;100.00;98393.05;105768;1256;60415;-71
2023/01/18 05:42:19;;;;;;;31.20;17.80;;;;;;;6.46;100.00;98390.04;105855;1259;72916;-70
2023/01/18 05:44:46;;;;;;;28.40;16.70;;;;;;;6.45;100.00;98382.27;105962;1258;71242;-71
2023/01/18 05:47:13;;;;;;;25.70;16.70;;;;;;;6.45;100.00;98387.70;106028;1258;72656;-71
2023/01/18 05:49:40;;;;;;;26.80;16.40;;;;;;;6.53;100.00;98368.39;105461;1256;64178;-71
2023/01/18 05:52:07;;;;;;;25.90;16.90;;;;;;;6.58;100.00;98378.15;105453;1254;62863;-70
2023/01/18 05:54:34;;;;;;;27.70;17.30;;;;;;;6.55;100.00;98363.60;105503;1255;73652;-71
2023/01/18 05:57:01;;;;;;;25.60;15.40;;;;;;;6.54;100.00;98362.98;105596;1259;71557;-71
2023/01/18 05:59:28;;;;;;;28.00;15.40;;;;;;;6.61;100.00;98359.20;105502;1258;73631;-73
2023/01/18 06:01:55;;;;;;;25.20;15.50;;;;;;;6.64;100.00;98369.36;105462;1256;60492;-71
2023/01/18 06:04:22;;;;;;;25.10;17.10;;;;;;;6.62;100.00;98352.00;105742;1259;60385;-74
2023/01/18 06:06:49;;;;;;;27.40;15.80;;;;;;;6.60;100.00;98343.43;105858;1259;73745;-72
2023/01/18 06:09:16;;;;;;;22.80;15.10;;;;;;;6.67;100.00;98343.48;105970;1256;71307;-74
2023/01/18 06:11:43;;;;;;;25.60;16.10;;;;;;;6.75;100.00;98340.23;105570;1255;72653;-73
2023/01/18 06:14:09;;;;;;;28.20;18.00;;;;;;;6.75;100.00;98345.40;105537;1255;61118;-73
2023/01/18 06:16:36;;;;;;;27.50;15.80;;;;;;;6.72;100.00;98347.04;105516;1258;62462;-72
2023/01/18 06:19:04;;;;;;;23.10;14.80;;;;;;;6.76;100.00;98342.89;105620;1256;75677;-71
2023/01/18 06:21:31;;;;;;;24.40;16.30;;;;;;;6.81;100.00;98345.42;105796;1256;72364;-71
2023/01/18 06:23:58;;;;;;;22.30;14.90;;;;;;;6.80;100.00;98353.88;105756;1256;74597;-71
2023/01/18 06:26:25;;;;;;;23.00;14.40;;;;;;;6.78;100.00;98349.27;105452;1256;63965;-73
2023/01/18 06:28:52;;;;;;;21.80;13.90;;;;;;;6.86;100.00;98352.92;105566;1258;62052;-71
2023/01/18 06:31:19;;;;;;;27.20;16.50;;;;;;;6.93;100.00;98347.66;105583;1258;75871;-74
2023/01/18 06:33:47;;;;;;;24.50;16.90;;;;;;;6.89;100.00;98342.70;105345;1256;72267;-73
2023/01/18 06:36:14;;;;;;;23.10;14.40;;;;;;;6.88;100.00;98339.67;105212;1254;75827;-76
2023/01/18 06:38:41;;;;;;;21.50;12.90;;;;;;;6.95;100.00;98344.70;105833;1254;63794;-75
2023/01/18 06:41:08;;;;;;;26.50;16.70;;;;;;;7.01;100.00;98346.70;105625;1258;61454;-74
2023/01/18 06:43:35;;;;;;;23.80;15.00;;;;;;;7.00;100.00;98346.80;105690;1254;73294;-74
2023/01/18 06:46:03;;;;;;;22.80;14.50;;;;;;;6.96;100.00;98342.41;105754;1254;73301;-73
2023/01/18 06:48:30;;;;;;;21.20;13.80;;;;;;;7.04;100.00;98349.66;105555;1256;73558;-74
2023/01/18 06:50:57;;;;;;;23.80;14.30;;;;;;;7.10;100.00;98345.98;105675;1256;62189;-74
2023/01/18 06:53:24;;;;;;;26.40;15.60;;;;;;;7.07;100.00;98352.65;105564;1256;62007;-75
2023/01/18 06:55:55;;;;;;;27.10;14.70;;;;;;;7.05;100.00;98339.32;105888;1254;76273;-74
2023/01/18 06:58:24;;;;;;;27.60;14.30;;;;;;;7.12;100.00;98338.99;105697;1256;72280;-74
2023/01/18 07:00:57;;;;;;;27.70;15.90;;;;;;;7.19;100.00;98338.35;106823;1254;70732;-75
2023/01/18 07:03:24;;;;;;;25.30;15.70;;;;;;;7.19;100.00;98333.08;106771;1256;61457;-75
2023/01/18 07:05:55;;;;;;;22.80;14.30;;;;;;;7.16;100.00;98338.15;105597;1259;61198;-73
2023/01/18 07:08:22;;;;;;;20.60;14.70;;;;;;;7.22;100.00;98338.39;105479;1254;75902;-73
2023/01/18 07:10:51;;;;;;;23.00;15.60;;;;;;;7.26;100.00;98340.54;105384;1259;72388;-74
2023/01/18 07:13:19;;;;;;;23.60;14.20;;;;;;;7.24;100.00;98333.07;105819;1254;74745;-73
2023/01/18 07:15:53;;;;;;;25.70;14.70;;;;;;;7.23;100.00;98332.60;105501;1259;62367;-74
2023/01/18 07:18:19;;;;;;;25.00;14.40;;;;;;;7.32;100.00;98333.54;105310;1253;61184;-71
2023/01/18 07:20:46;;;;;;;21.60;15.80;;;;;;;7.34;100.00;98327.55;105286;1258;75776;-72
2023/01/18 07:23:13;;;;;;;21.20;14.40;;;;;;;7.28;100.00;98323.91;105401;1261;71300;-74
2023/01/18 07:25:40;;;;;;;18.80;13.20;;;;;;;7.32;100.00;98330.58;105699;1257;72845;-74
2023/01/18 07:28:07;;;;;;;21.80;14.30;;;;;;;7.36;100.00;98331.85;105937;1256;62279;-74
2023/01/18 07:30:34;;;;;;;22.90;15.40;;;;;;;7.34;100.00;98334.05;105784;1259;60457;-76
2023/01/18 07:33:01;;;;;;;24.40;14.50;;;;;;;7.28;100.00;98328.46;105524;1253;72378;-74
2023/01/18 07:35:28;;;;;;;20.30;14.50;;;;;;;7.34;100.00;98331.17;105729;1258;72496;-73
2023/01/18 07:37:55;;;;;;;23.90;15.50;;;;;;;7.39;100.00;98323.36;105353;1258;70451;-78
2023/01/18 07:40:22;;;;;;;26.50;16.00;;;;;;;7.37;100.00;98320.08;105792;1259;60946;-75
2023/01/18 07:42:55;;;;;;;23.10;14.90;;;;;;;7.34;100.00;98315.89;105895;1253;60531;-76
2023/01/18 07:45:23;;;;;;;20.90;13.40;;;;;;;7.39;100.00;98319.33;105777;1256;72787;-72
2023/01/18 07:47:51;;;;;;;27.70;15.20;;;;;;;7.44;100.00;98317.12;105615;1256;72205;-73
2023/01/18 07:50:20;;;;;;;23.00;14.90;;;;;;;7.39;100.00;98320.12;105517;1254;72503;-72
2023/01/18 07:52:47;;;;;;;22.50;15.40;;;;;;;7.42;100.00;98314.21;105554;1253;62106;-74
2023/01/18 07:55:14;;;;;;;23.00;15.40;;;;;;;7.46;100.00;98319.35;105388;1253;62633;-73
2023/01/18 07:57:41;;;;;;;23.40;15.60;;;;;;;7.43;100.00;98307.72;105612;1261;75747;-74
2023/01/18 08:00:10;;;;;;;32.80;15.40;;;;;;;7.41;100.00;98305.17;105448;1254;70586;-77
2023/01/18 08:02:39;;;;;;;25.60;13.90;;;;;;;7.48;100.00;98312.10;105675;1258;74685;-76
2023/01/18 08:05:09;;;;;;;24.80;15.50;;;;;;;7.52;100.00;98309.84;106103;1255;60577;-76
2023/01/18 08:07:36;;;;;;;27.00;16.70;;;;;;;7.50;100.00;98312.00;105975;1258;60480;-75
2023/01/18 08:10:03;;;;;;;20.70;13.20;;;;;;;7.49;100.00;98304.36;105847;1253;73552;-73
2023/01/18 08:12:32;;;;;;;29.80;16.80;;;;;;;7.56;100.00;98312.46;105462;1253;72551;-74
2023/01/18 08:14:59;;;;;;;25.80;16.00;;;;;;;7.59;100.00;98290.63;105560;1262;71552;-75
2023/01/18 08:17:28;;;;;;;24.10;15.20;;;;;;;7.55;100.00;98286.73;105386;1260;64347;-74
2023/01/18 08:19:55;;;;;;;24.10;14.40;;;;;;;7.59;100.00;98297.29;105568;1259;62632;-74
2023/01/18 08:22:22;;;;;;;24.80;15.50;;;;;;;7.66;100.00;98302.69;105197;1261;75873;-74
2023/01/18 08:24:49;;;;;;;28.00;17.00;;;;;;;7.65;100.00;98297.36;105410;1254;69618;-74
2023/01/18 08:27:16;;;;;;;27.30;15.10;;;;;;;7.65;100.00;98303.91;105417;1260;73114;-73
2023/01/18 08:29:44;;;;;;;24.30;14.70;;;;;;;7.73;100.00;98309.73;105384;1261;62631;-75
2023/01/18 08:32:11;;;;;;;24.50;17.60;;;;;;;7.79;100.00;98301.18;105444;1253;61201;-74
2023/01/18 08:34:38;;;;;;;28.00;14.90;;;;;;;7.77;100.00;98293.60;105561;1258;76012;-74
2023/01/18 08:37:06;;;;;;;24.50;15.20;;;;;;;7.83;100.00;98294.60;105322;1255;68728;-73
2023/01/18 08:39:32;;;;;;;26.80;17.30;;;;;;;7.90;100.00;98294.84;105398;1257;74997;-72
2023/01/18 08:41:59;;;;;;;24.70;16.60;;;;;;;7.90;100.00;98290.69;105356;1253;61298;-74
2023/01/18 08:44:27;;;;;;;24.50;15.70;;;;;;;7.89;100.00;98286.91;105310;1253;61139;-73
2023/01/18 08:46:54;;;;;;;27.70;16.20;;;;;;;7.97;100.00;98291.23;105313;1253;74729;-73
2023/01/18 08:49:21;;;;;;;32.30;17.00;;;;;;;8.04;100.00;98285.44;105536;1253;72064;-73
2023/01/18 08:51:48;;;;;;;30.70;17.40;;;;;;;8.04;100.00;98287.18;105411;1256;71196;-73
2023/01/18 08:54:15;;;;;;;26.70;16.20;;;;;;;8.03;100.00;98281.68;105691;1252;64172;-73
2023/01/18 08:56:42;;;;;;;25.10;14.80;;;;;;;8.10;100.00;98272.40;105322;1258;61742;-72
2023/01/18 08:59:09;;;;;;;31.80;16.60;;;;;;;8.17;100.00;98270.92;105377;1253;73968;-73
2023/01/18 09:01:36;;;;;;;27.80;17.00;;;;;;;8.17;100.00;98272.77;105419;1258;69151;-73
2023/01/18 09:04:03;;;;;;;30.90;16.50;;;;;;;8.14;100.00;98272.73;105541;1257;74953;-72
2023/01/18 09:06:32;;;;;;;28.10;16.50;;;;;;;8.21;100.00;98266.96;105444;1257;63070;-73
2023/01/18 09:09:00;;;;;;;29.70;18.90;;;;;;;8.23;100.00;98265.08;105347;1260;62095;-73
2023/01/18 09:11:27;;;;;;;26.20;16.20;;;;;;;8.19;100.00;98254.29;107004;1254;75692;-75
2023/01/18 09:13:54;;;;;;;28.30;17.30;;;;;;;8.21;100.00;98249.14;105774;1260;71293;-75
2023/01/18 09:16:28;;;;;;;24.50;15.60;;;;;;;8.27;100.00;98258.56;105611;1257;74606;-74
2023/01/18 09:18:57;;;;;;;33.90;18.70;;;;;;;8.28;100.00;98246.51;105655;1254;60459;-75
2023/01/18 09:21:26;;;;;;;26.50;15.40;;;;;;;8.24;100.00;98243.11;105937;1258;62962;-76
2023/01/18 09:23:53;;;;;;;27.00;15.70;;;;;;;8.29;100.00;98244.20;105590;1256;75219;-75
2023/01/18 09:26:21;;;;;;;28.80;16.80;;;;;;;8.36;100.00;98248.30;105823;1256;72252;-74
2023/01/18 09:28:51;;;;;;;28.40;17.30;;;;;;;8.34;100.00;98239.69;105643;1261;74009;-74
2023/01/18 09:31:19;;;;;;;28.60;16.90;;;;;;;8.33;100.00;98236.38;106022;1255;62326;-77
2023/01/18 09:33:47;;;;;;;26.70;15.40;;;;;;;8.39;100.00;98237.50;106291;1253;61907;-78
2023/01/18 09:36:22;;;;;;;28.10;16.80;;;;;;;8.43;100.00;98241.23;106734;1254;74318;-77
2023/01/18 09:38:49;;;;;;;28.50;16.80;;;;;;;8.42;100.00;98233.52;107977;1258;72875;-77
2023/01/18 09:41:35;;;;;;;35.10;17.40;;;;;;;8.42;100.00;98245.52;108373;1253;72829;-79
2023/01/18 09:44:35;;;;;;;29.70;15.20;;;;;;;8.50;100.00;98238.67;108125;1258;61138;-78
2023/01/18 09:47:16;;;;;;;33.90;17.80;;;;;;;8.55;100.00;98237.14;106041;1255;60995;-78
2023/01/18 09:49:57;;;;;;;26.90;16.50;;;;;;;8.54;100.00;98243.18;105847;1253;74766;-77
2023/01/18 09:52:36;;;;;;;29.50;16.70;;;;;;;8.50;100.00;98234.84;105826;1261;71187;-77
2023/01/18 09:55:09;;;;;;;24.90;15.30;;;;;;;8.57;100.00;98233.92;105679;1259;75269;-78
2023/01/18 09:57:43;;;;;;;35.90;18.00;;;;;;;8.58;100.00;98226.61;105877;1256;61041;-79
2023/01/18 10:00:34;;;;;;;37.70;17.70;;;;;;;8.54;100.00;98229.95;105961;1259;62327;-77
2023/01/18 10:03:09;;;;;;;31.60;15.40;;;;;;;8.51;100.00;98222.64;105536;1259;75817;-78
2023/01/18 10:05:39;;;;;;;27.20;15.90;;;;;;;8.57;100.00;98223.22;105599;1259;72471;-78
2023/01/18 10:08:13;;;;;;;30.40;17.50;;;;;;;8.57;100.00;98220.90;105762;1261;73059;-78
2023/01/18 10:10:55;;;;;;;29.80;17.60;;;;;;;8.55;100.00;98232.08;105715;1256;62930;-78
2023/01/18 10:13:40;;;;;;;22.70;13.70;;;;;;;8.53;100.00;98227.34;105604;1253;61202;-78
2023/01/18 10:16:13;;;;;;;29.20;15.30;;;;;;;8.61;100.00;98222.80;105782;1254;75958;-77
2023/01/18 10:18:44;;;;;;;26.70;15.90;;;;;;;8.62;100.00;98230.45;105756;1253;70717;-78
2023/01/18 10:21:19;;;;;;;28.30;17.10;;;;;;;8.56;100.00;98223.30;105912;1257;74533;-77
2023/01/18 10:23:54;;;;;;;25.70;14.40;;;;;;;8.59;100.00;98234.95;107121;1256;64106;-80
2023/01/18 10:26:28;;;;;;;31.70;16.40;;;;;;;8.61;100.00;98215.10;106064;1259;60460;-79
2023/01/18 10:29:15;;;;;;;24.90;16.00;;;;;;;8.58;100.00;98212.14;106516;1259;75916;-76
2023/01/18 10:31:49;;;;;;;29.30;14.50;;;;;;;8.57;100.00;98212.31;105620;1261;71273;-78
2023/01/18 10:34:19;;;;;;;27.50;13.60;;;;;;;8.65;100.00;98202.38;105900;1256;73801;-79
2023/01/18 10:36:54;;;;;;;27.70;15.50;;;;;;;8.69;100.00;98187.12;105772;1258;62192;-77
2023/01/18 10:39:26;;;;;;;24.40;12.70;;;;;;;8.64;100.00;98198.79;105877;1258;62472;-80
2023/01/18 10:41:56;;;;;;;23.80;12.10;;;;;;;8.68;100.00;98198.12;105997;1257;74169;-76
2023/01/18 10:44:23;;;;;;;20.00;12.20;;;;;;;8.70;100.00;98190.45;107684;1253;71254;-76
2023/01/18 10:46:56;;;;;;;22.20;12.00;;;;;;;8.68;100.00;98203.46;107546;1253;73450;-78
2023/01/18 10:49:33;;;;;;;24.70;11.90;;;;;;;8.73;100.00;98203.38;106735;1258;60914;-80
2023/01/18 10:52:35;;;;;;;24.20;12.90;;;;;;;8.79;100.00;98190.25;105878;1259;62478;-78
2023/01/18 10:55:06;;;;;;;29.00;13.80;;;;;;;8.73;100.00;98190.24;105779;1258;74984;-78
2023/01/18 10:57:35;;;;;;;22.30;11.80;;;;;;;8.72;100.00;98203.88;106126;1258;72201;-88
2023/01/18 11:00:11;;;;;;;25.00;12.00;;;;;;;8.78;100.00;98197.98;106933;1254;73833;-81
2023/01/18 11:02:38;;;;;;;24.00;13.40;;;;;;;8.79;100.00;98203.57;105952;1258;62190;-84
2023/01/18 11:05:31;;;;;;;21.20;11.50;;;;;;;8.75;100.00;98195.09;105841;1253;61052;-85
2023/01/18 11:08:13;;;;;;;29.80;11.70;;;;;;;8.75;100.00;98190.31;105750;1260;74947;-83
2023/01/18 11:10:43;;;;;;;29.90;12.10;;;;;;;8.82;100.00;98191.90;106403;1253;70196;-84
2023/01/18 11:13:24;;;;;;;26.80;14.00;;;;;;;8.81;100.00;98191.32;106177;1256;73674;-83
2023/01/18 11:16:08;;;;;;;23.40;11.60;;;;;;;8.80;100.00;98186.35;106066;1260;62617;-83
2023/01/18 11:18:36;;;;;;;20.70;11.70;;;;;;;8.87;100.00;98187.58;106586;1260;61057;-82
2023/01/18 11:21:08;;;;;;;24.40;12.00;;;;;;;8.91;100.00;98182.24;106668;1255;74998;-82
2023/01/18 11:23:35;;;;;;;25.40;11.70;;;;;;;8.91;100.00;98190.53;106546;1255;72253;-82
2023/01/18 11:26:16;;;;;;;24.90;11.30;;;;;;;8.95;100.00;98189.94;106232;1256;74425;-82
2023/01/18 11:28:52;;;;;;;22.30;10.60;;;;;;;9.06;99.91;98193.70;106821;1259;61246;-81
2023/01/18 11:31:20;;;;;;;21.20;11.20;;;;;;;9.05;99.97;98188.32;106223;1257;62500;-81
2023/01/18 11:33:59;;;;;;;19.50;9.80;;;;;;;9.05;100.00;98186.23;106051;1257;72898;-83
2023/01/18 11:36:38;;;;;;;17.40;10.00;;;;;;;9.13;99.86;98185.91;106366;1253;71018;-81
2023/01/18 11:39:24;;;;;;;26.60;11.00;;;;;;;9.19;99.46;98185.33;106020;1260;72195;-82
2023/01/18 11:41:51;;;;;;;23.40;10.30;;;;;;;9.18;99.72;98190.86;106765;1258;62271;-83
2023/01/18 11:44:22;;;;;;;20.70;9.50;;;;;;;9.21;99.22;98181.38;106530;1260;62612;-82
2023/01/18 11:46:51;;;;;;;23.60;9.70;;;;;;;9.32;98.87;98184.27;106641;1260;74068;-83
2023/01/18 11:49:37;;;;;;;21.20;9.30;;;;;;;9.35;98.59;98189.46;106536;1260;69221;-81
2023/01/18 11:53:03;;;;;;;20.00;8.70;;;;;;;9.33;98.68;98178.77;108244;1253;73680;-82
2023/01/18 11:55:42;;;;;;;22.00;10.00;;;;;;;9.44;98.28;98184.61;107676;1261;63021;-77
2023/01/18 11:58:27;;;;;;;19.70;10.50;;;;;;;9.45;97.44;98177.67;106223;1259;61189;-80